sensor_id;sensor_type;location;lat;lon;timestamp;P1;durP1;ratioP1;P2;durP2;ratioP2
68144;SDS011;55400;51.824;-0.196;2023-05-23T00:00:02;11.60;;;5.60;;
68144;SDS011;55400;51.824;-0.196;2023-05-23T00:04:00;10.40;;;5.70;;
68144;SDS011;55400;51.824;-0.196;2023-05-23T00:08:01;10.00;;;5.20;;
68144;SDS011;55400;51.824;-0.196;2023-05-23T00:12:01;9.70;;;5.50;;
68144;SDS011;55400;51.824;-0.196;2023-05-23T00:16:01;8.10;;;5.30;;
68144;SDS011;55400;51.824;-0.196;2023-05-23T00:20:01;11.60;;;5.40;;
68144;SDS011;55400;51.824;-0.196;2023-05-23T00:24:01;8.00;;;5.20;;
68144;SDS011;55400;51.824;-0.196;2023-05-23T00:28:01;8.00;;;5.00;;
68144;SDS011;55400;51.824;-0.196;2023-05-23T00:32:01;9.00;;;5.20;;
68144;SDS011;55400;51.824;-0.196;2023-05-23T00:36:01;9.10;;;5.00;;
68144;SDS011;55400;51.824;-0.196;2023-05-23T00:40:01;9.50;;;5.50;;
68144;SDS011;55400;51.824;-0.196;2023-05-23T00:44:01;11.00;;;5.50;;
68144;SDS011;55400;51.824;-0.196;2023-05-23T00:48:02;10.30;;;4.80;;
68144;SDS011;55400;51.824;-0.196;2023-05-23T00:52:01;13.20;;;5.20;;
68144;SDS011;55400;51.824;-0.196;2023-05-23T00:56:01;12.00;;;5.20;;
68144;SDS011;55400;51.824;-0.196;2023-05-23T01:00:01;8.60;;;5.20;;
68144;SDS011;55400;51.824;-0.196;2023-05-23T01:04:01;10.70;;;5.30;;
68144;SDS011;55400;51.824;-0.196;2023-05-23T01:08:01;12.50;;;5.50;;
68144;SDS011;55400;51.824;-0.196;2023-05-23T01:12:08;11.90;;;5.30;;
68144;SDS011;55400;51.824;-0.196;2023-05-23T01:16:12;10.00;;;5.20;;
68144;SDS011;55400;51.824;-0.196;2023-05-23T01:20:03;8.80;;;5.00;;
68144;SDS011;55400;51.824;-0.196;2023-05-23T01:24:12;9.60;;;5.20;;
68144;SDS011;55400;51.824;-0.196;2023-05-23T01:32:04;12.90;;;5.80;;
68144;SDS011;55400;51.824;-0.196;2023-05-23T01:36:01;11.90;;;5.90;;
68144;SDS011;55400;51.824;-0.196;2023-05-23T01:44:02;14.40;;;6.30;;
68144;SDS011;55400;51.824;-0.196;2023-05-23T01:48:01;11.20;;;6.10;;
68144;SDS011;55400;51.824;-0.196;2023-05-23T01:56:01;10.40;;;6.00;;
68144;SDS011;55400;51.824;-0.196;2023-05-23T02:00:01;13.90;;;6.30;;
68144;SDS011;55400;51.824;-0.196;2023-05-23T02:04:01;12.80;;;6.80;;
68144;SDS011;55400;51.824;-0.196;2023-05-23T02:08:01;11.50;;;6.20;;
68144;SDS011;55400;51.824;-0.196;2023-05-23T02:12:01;12.70;;;6.30;;
68144;SDS011;55400;51.824;-0.196;2023-05-23T02:16:01;11.80;;;5.70;;
68144;SDS011;55400;51.824;-0.196;2023-05-23T02:20:01;11.80;;;5.80;;
68144;SDS011;55400;51.824;-0.196;2023-05-23T02:24:01;9.70;;;5.50;;
68144;SDS011;55400;51.824;-0.196;2023-05-23T02:28:01;11.00;;;5.60;;
68144;SDS011;55400;51.824;-0.196;2023-05-23T02:36:01;11.30;;;5.30;;
68144;SDS011;55400;51.824;-0.196;2023-05-23T02:40:01;10.40;;;5.50;;
68144;SDS011;55400;51.824;-0.196;2023-05-23T02:44:01;11.30;;;5.50;;
68144;SDS011;55400;51.824;-0.196;2023-05-23T02:48:01;10.10;;;5.40;;
68144;SDS011;55400;51.824;-0.196;2023-05-23T02:52:01;9.50;;;5.40;;
68144;SDS011;55400;51.824;-0.196;2023-05-23T02:56:01;10.60;;;5.80;;
68144;SDS011;55400;51.824;-0.196;2023-05-23T03:00:01;12.10;;;6.50;;
68144;SDS011;55400;51.824;-0.196;2023-05-23T03:04:01;8.80;;;5.20;;
68144;SDS011;55400;51.824;-0.196;2023-05-23T03:08:01;9.30;;;5.90;;
68144;SDS011;55400;51.824;-0.196;2023-05-23T03:12:01;9.10;;;5.70;;
68144;SDS011;55400;51.824;-0.196;2023-05-23T03:16:01;11.20;;;5.40;;
68144;SDS011;55400;51.824;-0.196;2023-05-23T03:20:01;8.60;;;5.50;;
68144;SDS011;55400;51.824;-0.196;2023-05-23T03:24:01;7.90;;;4.90;;
68144;SDS011;55400;51.824;-0.196;2023-05-23T03:28:01;12.90;;;5.30;;
68144;SDS011;55400;51.824;-0.196;2023-05-23T03:32:01;11.50;;;5.70;;
68144;SDS011;55400;51.824;-0.196;2023-05-23T03:36:01;10.00;;;5.30;;
68144;SDS011;55400;51.824;-0.196;2023-05-23T03:40:02;11.10;;;5.40;;
68144;SDS011;55400;51.824;-0.196;2023-05-23T03:44:01;9.00;;;5.00;;
68144;SDS011;55400;51.824;-0.196;2023-05-23T03:48:01;9.50;;;5.10;;
68144;SDS011;55400;51.824;-0.196;2023-05-23T03:52:01;11.10;;;4.80;;
68144;SDS011;55400;51.824;-0.196;2023-05-23T03:56:01;9.80;;;4.60;;
68144;SDS011;55400;51.824;-0.196;2023-05-23T04:00:02;8.80;;;4.50;;
68144;SDS011;55400;51.824;-0.196;2023-05-23T04:04:01;7.90;;;4.60;;
68144;SDS011;55400;51.824;-0.196;2023-05-23T04:08:01;10.00;;;4.10;;
68144;SDS011;55400;51.824;-0.196;2023-05-23T04:12:01;9.40;;;4.40;;
68144;SDS011;55400;51.824;-0.196;2023-05-23T04:16:01;9.30;;;4.30;;
68144;SDS011;55400;51.824;-0.196;2023-05-23T04:20:02;6.90;;;4.30;;
68144;SDS011;55400;51.824;-0.196;2023-05-23T04:24:01;9.30;;;4.00;;
68144;SDS011;55400;51.824;-0.196;2023-05-23T04:32:01;9.10;;;4.30;;
68144;SDS011;55400;51.824;-0.196;2023-05-23T04:40:02;8.70;;;3.90;;
68144;SDS011;55400;51.824;-0.196;2023-05-23T04:48:01;6.00;;;3.60;;
68144;SDS011;55400;51.824;-0.196;2023-05-23T04:52:01;12.00;;;4.40;;
68144;SDS011;55400;51.824;-0.196;2023-05-23T04:56:01;8.10;;;4.00;;
68144;SDS011;55400;51.824;-0.196;2023-05-23T05:00:02;10.50;;;4.50;;
68144;SDS011;55400;51.824;-0.196;2023-05-23T05:04:01;10.40;;;4.30;;
68144;SDS011;55400;51.824;-0.196;2023-05-23T05:08:01;6.90;;;3.60;;
68144;SDS011;55400;51.824;-0.196;2023-05-23T05:12:01;7.10;;;3.40;;
68144;SDS011;55400;51.824;-0.196;2023-05-23T05:16:02;8.90;;;3.80;;
68144;SDS011;55400;51.824;-0.196;2023-05-23T05:20:02;7.60;;;3.80;;
68144;SDS011;55400;51.824;-0.196;2023-05-23T05:24:02;11.60;;;4.00;;
68144;SDS011;55400;51.824;-0.196;2023-05-23T05:28:02;13.90;;;4.30;;
68144;SDS011;55400;51.824;-0.196;2023-05-23T05:32:01;8.10;;;3.80;;
68144;SDS011;55400;51.824;-0.196;2023-05-23T05:36:02;10.80;;;4.00;;
68144;SDS011;55400;51.824;-0.196;2023-05-23T05:40:02;8.40;;;3.80;;
68144;SDS011;55400;51.824;-0.196;2023-05-23T05:44:01;12.50;;;4.00;;
68144;SDS011;55400;51.824;-0.196;2023-05-23T05:48:01;11.10;;;4.00;;
68144;SDS011;55400;51.824;-0.196;2023-05-23T05:52:02;11.90;;;4.00;;
68144;SDS011;55400;51.824;-0.196;2023-05-23T05:56:02;7.70;;;3.50;;
68144;SDS011;55400;51.824;-0.196;2023-05-23T06:00:02;10.90;;;3.80;;
68144;SDS011;55400;51.824;-0.196;2023-05-23T06:04:01;11.40;;;4.10;;
68144;SDS011;55400;51.824;-0.196;2023-05-23T06:12:02;10.80;;;3.50;;
68144;SDS011;55400;51.824;-0.196;2023-05-23T06:16:01;17.30;;;3.90;;
68144;SDS011;55400;51.824;-0.196;2023-05-23T06:20:02;13.50;;;3.50;;
68144;SDS011;55400;51.824;-0.196;2023-05-23T06:24:02;17.00;;;3.80;;
68144;SDS011;55400;51.824;-0.196;2023-05-23T06:28:02;11.60;;;3.30;;
68144;SDS011;55400;51.824;-0.196;2023-05-23T06:32:02;12.40;;;3.40;;
68144;SDS011;55400;51.824;-0.196;2023-05-23T06:36:02;13.90;;;3.70;;
68144;SDS011;55400;51.824;-0.196;2023-05-23T06:40:02;16.20;;;3.50;;
68144;SDS011;55400;51.824;-0.196;2023-05-23T06:44:02;11.60;;;3.20;;
68144;SDS011;55400;51.824;-0.196;2023-05-23T06:48:02;12.30;;;3.20;;
68144;SDS011;55400;51.824;-0.196;2023-05-23T06:52:02;13.80;;;3.50;;
68144;SDS011;55400;51.824;-0.196;2023-05-23T06:56:02;13.80;;;3.40;;
68144;SDS011;55400;51.824;-0.196;2023-05-23T07:04:02;12.90;;;3.20;;
68144;SDS011;55400;51.824;-0.196;2023-05-23T07:08:02;11.60;;;3.10;;
68144;SDS011;55400;51.824;-0.196;2023-05-23T07:12:02;15.70;;;3.80;;
68144;SDS011;55400;51.824;-0.196;2023-05-23T07:16:02;11.50;;;3.30;;
68144;SDS011;55400;51.824;-0.196;2023-05-23T07:20:02;10.00;;;2.60;;
68144;SDS011;55400;51.824;-0.196;2023-05-23T07:24:02;11.00;;;3.20;;
68144;SDS011;55400;51.824;-0.196;2023-05-23T07:28:02;12.00;;;3.20;;
68144;SDS011;55400;51.824;-0.196;2023-05-23T07:32:02;14.10;;;3.20;;
68144;SDS011;55400;51.824;-0.196;2023-05-23T07:36:02;12.70;;;3.10;;
68144;SDS011;55400;51.824;-0.196;2023-05-23T07:40:03;16.40;;;3.20;;
68144;SDS011;55400;51.824;-0.196;2023-05-23T07:44:02;15.60;;;3.50;;
68144;SDS011;55400;51.824;-0.196;2023-05-23T07:47:43;unknown;;;unknown;;
68144;SDS011;55400;51.824;-0.196;2023-05-23T07:50:15;12.00;;;3.40;;
68144;SDS011;55400;51.824;-0.196;2023-05-23T07:54:15;14.40;;;3.50;;
68144;SDS011;55400;51.824;-0.196;2023-05-23T07:58:15;12.30;;;3.20;;
68144;SDS011;55400;51.824;-0.196;2023-05-23T08:02:15;13.70;;;3.10;;
68144;SDS011;55400;51.824;-0.196;2023-05-23T08:06:15;13.90;;;3.20;;
68144;SDS011;55400;51.824;-0.196;2023-05-23T08:10:15;13.20;;;3.40;;
68144;SDS011;55400;51.824;-0.196;2023-05-23T08:14:15;12.40;;;3.20;;
68144;SDS011;55400;51.824;-0.196;2023-05-23T08:18:15;13.50;;;3.00;;
68144;SDS011;55400;51.824;-0.196;2023-05-23T08:22:15;13.90;;;3.40;;
68144;SDS011;55400;51.824;-0.196;2023-05-23T08:26:15;15.80;;;3.20;;
68144;SDS011;55400;51.824;-0.196;2023-05-23T08:30:15;14.00;;;3.20;;
68144;SDS011;55400;51.824;-0.196;2023-05-23T08:34:15;7.80;;;2.90;;
68144;SDS011;55400;51.824;-0.196;2023-05-23T08:38:15;12.30;;;2.80;;
68144;SDS011;55400;51.824;-0.196;2023-05-23T08:42:15;12.80;;;3.00;;
68144;SDS011;55400;51.824;-0.196;2023-05-23T08:46:15;11.90;;;3.30;;
68144;SDS011;55400;51.824;-0.196;2023-05-23T08:50:16;11.40;;;3.10;;
68144;SDS011;55400;51.824;-0.196;2023-05-23T08:54:15;11.30;;;3.10;;
68144;SDS011;55400;51.824;-0.196;2023-05-23T08:58:16;14.60;;;3.40;;
68144;SDS011;55400;51.824;-0.196;2023-05-23T09:02:16;8.60;;;2.70;;
68144;SDS011;55400;51.824;-0.196;2023-05-23T09:06:15;9.60;;;2.70;;
68144;SDS011;55400;51.824;-0.196;2023-05-23T09:10:15;7.80;;;2.50;;
68144;SDS011;55400;51.824;-0.196;2023-05-23T09:14:15;10.20;;;2.70;;
68144;SDS011;55400;51.824;-0.196;2023-05-23T09:18:15;9.90;;;2.70;;
68144;SDS011;55400;51.824;-0.196;2023-05-23T09:22:16;14.50;;;3.60;;
68144;SDS011;55400;51.824;-0.196;2023-05-23T09:26:15;9.70;;;2.80;;
68144;SDS011;55400;51.824;-0.196;2023-05-23T09:30:16;9.90;;;2.60;;
68144;SDS011;55400;51.824;-0.196;2023-05-23T09:38:17;13.00;;;2.90;;
68144;SDS011;55400;51.824;-0.196;2023-05-23T09:42:19;14.20;;;2.80;;
68144;SDS011;55400;51.824;-0.196;2023-05-23T09:46:15;9.80;;;2.70;;
68144;SDS011;55400;51.824;-0.196;2023-05-23T09:50:15;9.20;;;3.00;;
68144;SDS011;55400;51.824;-0.196;2023-05-23T09:54:15;9.80;;;2.80;;
68144;SDS011;55400;51.824;-0.196;2023-05-23T09:58:16;12.60;;;2.90;;
68144;SDS011;55400;51.824;-0.196;2023-05-23T10:02:16;9.40;;;2.80;;
68144;SDS011;55400;51.824;-0.196;2023-05-23T10:06:21;12.80;;;3.50;;
68144;SDS011;55400;51.824;-0.196;2023-05-23T10:10:16;11.20;;;3.20;;
68144;SDS011;55400;51.824;-0.196;2023-05-23T10:14:16;9.90;;;2.40;;
68144;SDS011;55400;51.824;-0.196;2023-05-23T10:18:20;11.10;;;2.70;;
68144;SDS011;55400;51.824;-0.196;2023-05-23T10:22:15;9.60;;;2.70;;
68144;SDS011;55400;51.824;-0.196;2023-05-23T10:26:16;10.60;;;3.00;;
68144;SDS011;55400;51.824;-0.196;2023-05-23T10:30:15;11.40;;;2.90;;
68144;SDS011;55400;51.824;-0.196;2023-05-23T10:34:23;9.00;;;2.70;;
68144;SDS011;55400;51.824;-0.196;2023-05-23T10:38:25;9.80;;;2.90;;
68144;SDS011;55400;51.824;-0.196;2023-05-23T10:42:19;12.20;;;2.90;;
68144;SDS011;55400;51.824;-0.196;2023-05-23T10:46:18;10.90;;;2.90;;
68144;SDS011;55400;51.824;-0.196;2023-05-23T10:50:29;13.90;;;3.20;;
68144;SDS011;55400;51.824;-0.196;2023-05-23T10:54:17;12.30;;;2.70;;
68144;SDS011;55400;51.824;-0.196;2023-05-23T10:58:17;9.50;;;2.90;;
68144;SDS011;55400;51.824;-0.196;2023-05-23T11:02:18;8.60;;;2.80;;
68144;SDS011;55400;51.824;-0.196;2023-05-23T11:06:27;10.10;;;2.90;;
68144;SDS011;55400;51.824;-0.196;2023-05-23T11:10:17;15.00;;;3.40;;
68144;SDS011;55400;51.824;-0.196;2023-05-23T11:14:16;9.10;;;2.90;;
68144;SDS011;55400;51.824;-0.196;2023-05-23T11:18:20;8.00;;;2.60;;
68144;SDS011;55400;51.824;-0.196;2023-05-23T11:22:16;9.00;;;3.00;;
68144;SDS011;55400;51.824;-0.196;2023-05-23T11:26:28;7.90;;;2.50;;
68144;SDS011;55400;51.824;-0.196;2023-05-23T11:30:17;11.50;;;3.30;;
68144;SDS011;55400;51.824;-0.196;2023-05-23T11:34:16;8.80;;;2.90;;
68144;SDS011;55400;51.824;-0.196;2023-05-23T11:38:16;10.40;;;3.00;;
68144;SDS011;55400;51.824;-0.196;2023-05-23T11:42:15;10.70;;;3.00;;
68144;SDS011;55400;51.824;-0.196;2023-05-23T11:46:16;8.10;;;2.70;;
68144;SDS011;55400;51.824;-0.196;2023-05-23T11:50:16;12.70;;;3.50;;
68144;SDS011;55400;51.824;-0.196;2023-05-23T11:54:16;10.90;;;3.10;;
68144;SDS011;55400;51.824;-0.196;2023-05-23T12:02:16;9.60;;;2.50;;
68144;SDS011;55400;51.824;-0.196;2023-05-23T12:06:17;9.30;;;3.10;;
68144;SDS011;55400;51.824;-0.196;2023-05-23T12:09:28;13.80;;;3.50;;
68144;SDS011;55400;51.824;-0.196;2023-05-23T12:10:16;13.80;;;3.50;;
68144;SDS011;55400;51.824;-0.196;2023-05-23T12:14:17;10.10;;;3.20;;
68144;SDS011;55400;51.824;-0.196;2023-05-23T12:18:18;11.30;;;3.30;;
68144;SDS011;55400;51.824;-0.196;2023-05-23T12:22:21;11.00;;;3.30;;
68144;SDS011;55400;51.824;-0.196;2023-05-23T12:26:16;11.10;;;2.80;;
68144;SDS011;55400;51.824;-0.196;2023-05-23T12:30:16;9.80;;;3.20;;
68144;SDS011;55400;51.824;-0.196;2023-05-23T12:34:16;12.00;;;3.30;;
68144;SDS011;55400;51.824;-0.196;2023-05-23T12:38:16;10.20;;;3.10;;
68144;SDS011;55400;51.824;-0.196;2023-05-23T12:42:16;9.20;;;3.00;;
68144;SDS011;55400;51.824;-0.196;2023-05-23T12:46:16;8.80;;;2.60;;
68144;SDS011;55400;51.824;-0.196;2023-05-23T12:50:16;8.80;;;2.90;;
68144;SDS011;55400;51.824;-0.196;2023-05-23T12:54:16;10.30;;;2.90;;
68144;SDS011;55400;51.824;-0.196;2023-05-23T12:58:16;9.00;;;2.60;;
68144;SDS011;55400;51.824;-0.196;2023-05-23T13:02:16;10.60;;;2.60;;
68144;SDS011;55400;51.824;-0.196;2023-05-23T13:06:16;9.30;;;2.70;;
68144;SDS011;55400;51.824;-0.196;2023-05-23T13:10:16;11.60;;;2.70;;
68144;SDS011;55400;51.824;-0.196;2023-05-23T13:14:16;10.60;;;2.80;;
68144;SDS011;55400;51.824;-0.196;2023-05-23T13:18:16;11.10;;;2.70;;
68144;SDS011;55400;51.824;-0.196;2023-05-23T13:26:16;8.10;;;2.70;;
68144;SDS011;55400;51.824;-0.196;2023-05-23T13:30:16;7.80;;;2.70;;
68144;SDS011;55400;51.824;-0.196;2023-05-23T13:34:16;10.50;;;2.90;;
68144;SDS011;55400;51.824;-0.196;2023-05-23T13:38:17;8.20;;;2.40;;
68144;SDS011;55400;51.824;-0.196;2023-05-23T13:42:16;10.30;;;2.50;;
68144;SDS011;55400;51.824;-0.196;2023-05-23T13:46:16;10.10;;;2.90;;
68144;SDS011;55400;51.824;-0.196;2023-05-23T13:50:16;8.90;;;2.40;;
68144;SDS011;55400;51.824;-0.196;2023-05-23T13:54:16;10.50;;;3.00;;
68144;SDS011;55400;51.824;-0.196;2023-05-23T13:58:16;13.10;;;3.10;;
68144;SDS011;55400;51.824;-0.196;2023-05-23T14:02:16;9.10;;;3.10;;
68144;SDS011;55400;51.824;-0.196;2023-05-23T14:06:16;11.00;;;2.60;;
68144;SDS011;55400;51.824;-0.196;2023-05-23T14:10:16;9.80;;;2.90;;
68144;SDS011;55400;51.824;-0.196;2023-05-23T14:14:16;8.70;;;2.60;;
68144;SDS011;55400;51.824;-0.196;2023-05-23T14:18:16;11.40;;;2.80;;
68144;SDS011;55400;51.824;-0.196;2023-05-23T14:22:16;8.40;;;2.70;;
68144;SDS011;55400;51.824;-0.196;2023-05-23T14:27:02;9.20;;;2.90;;
68144;SDS011;55400;51.824;-0.196;2023-05-23T14:30:16;7.10;;;2.60;;
68144;SDS011;55400;51.824;-0.196;2023-05-23T14:34:16;8.10;;;2.70;;
68144;SDS011;55400;51.824;-0.196;2023-05-23T14:38:16;10.10;;;2.50;;
68144;SDS011;55400;51.824;-0.196;2023-05-23T14:42:16;7.10;;;2.80;;
68144;SDS011;55400;51.824;-0.196;2023-05-23T14:46:17;9.30;;;2.80;;
68144;SDS011;55400;51.824;-0.196;2023-05-23T14:50:16;7.50;;;2.60;;
68144;SDS011;55400;51.824;-0.196;2023-05-23T14:54:16;6.60;;;2.60;;
68144;SDS011;55400;51.824;-0.196;2023-05-23T14:58:16;9.90;;;3.00;;
68144;SDS011;55400;51.824;-0.196;2023-05-23T15:02:16;10.40;;;2.70;;
68144;SDS011;55400;51.824;-0.196;2023-05-23T15:06:16;9.30;;;2.60;;
68144;SDS011;55400;51.824;-0.196;2023-05-23T15:10:16;9.30;;;2.50;;
68144;SDS011;55400;51.824;-0.196;2023-05-23T15:14:16;11.80;;;2.70;;
68144;SDS011;55400;51.824;-0.196;2023-05-23T15:18:16;5.40;;;2.30;;
68144;SDS011;55400;51.824;-0.196;2023-05-23T15:22:16;8.70;;;2.70;;
68144;SDS011;55400;51.824;-0.196;2023-05-23T15:26:16;9.50;;;3.00;;
68144;SDS011;55400;51.824;-0.196;2023-05-23T15:30:16;9.80;;;2.80;;
68144;SDS011;55400;51.824;-0.196;2023-05-23T15:34:16;8.30;;;2.70;;
68144;SDS011;55400;51.824;-0.196;2023-05-23T15:38:16;11.10;;;2.90;;
68144;SDS011;55400;51.824;-0.196;2023-05-23T15:42:16;7.60;;;2.40;;
68144;SDS011;55400;51.824;-0.196;2023-05-23T15:46:16;7.80;;;2.70;;
68144;SDS011;55400;51.824;-0.196;2023-05-23T15:50:16;8.20;;;2.60;;
68144;SDS011;55400;51.824;-0.196;2023-05-23T15:54:16;8.80;;;2.70;;
68144;SDS011;55400;51.824;-0.196;2023-05-23T15:58:16;9.70;;;2.80;;
68144;SDS011;55400;51.824;-0.196;2023-05-23T16:02:17;8.80;;;2.90;;
68144;SDS011;55400;51.824;-0.196;2023-05-23T16:06:16;6.20;;;2.50;;
68144;SDS011;55400;51.824;-0.196;2023-05-23T16:10:16;7.90;;;2.60;;
68144;SDS011;55400;51.824;-0.196;2023-05-23T16:14:17;6.80;;;2.70;;
68144;SDS011;55400;51.824;-0.196;2023-05-23T16:18:16;9.90;;;3.10;;
68144;SDS011;55400;51.824;-0.196;2023-05-23T16:22:16;10.20;;;2.90;;
68144;SDS011;55400;51.824;-0.196;2023-05-23T16:26:17;9.00;;;2.30;;
68144;SDS011;55400;51.824;-0.196;2023-05-23T16:30:17;7.30;;;2.80;;
68144;SDS011;55400;51.824;-0.196;2023-05-23T16:34:16;8.80;;;2.70;;
68144;SDS011;55400;51.824;-0.196;2023-05-23T16:38:16;7.80;;;2.70;;
68144;SDS011;55400;51.824;-0.196;2023-05-23T16:42:16;6.80;;;2.80;;
68144;SDS011;55400;51.824;-0.196;2023-05-23T16:46:16;5.60;;;2.20;;
68144;SDS011;55400;51.824;-0.196;2023-05-23T16:50:16;6.90;;;2.60;;
68144;SDS011;55400;51.824;-0.196;2023-05-23T16:54:17;6.70;;;2.60;;
68144;SDS011;55400;51.824;-0.196;2023-05-23T16:58:17;6.90;;;2.50;;
68144;SDS011;55400;51.824;-0.196;2023-05-23T17:02:17;7.40;;;2.70;;
68144;SDS011;55400;51.824;-0.196;2023-05-23T17:06:16;9.90;;;2.60;;
68144;SDS011;55400;51.824;-0.196;2023-05-23T17:10:16;8.20;;;2.40;;
68144;SDS011;55400;51.824;-0.196;2023-05-23T17:14:17;6.80;;;2.60;;
68144;SDS011;55400;51.824;-0.196;2023-05-23T17:18:17;5.50;;;2.60;;
68144;SDS011;55400;51.824;-0.196;2023-05-23T17:22:16;9.50;;;2.80;;
68144;SDS011;55400;51.824;-0.196;2023-05-23T17:26:17;7.70;;;2.50;;
68144;SDS011;55400;51.824;-0.196;2023-05-23T17:30:17;6.20;;;2.70;;
68144;SDS011;55400;51.824;-0.196;2023-05-23T17:34:17;8.50;;;2.70;;
68144;SDS011;55400;51.824;-0.196;2023-05-23T17:38:17;7.00;;;2.70;;
68144;SDS011;55400;51.824;-0.196;2023-05-23T17:42:17;6.20;;;2.50;;
68144;SDS011;55400;51.824;-0.196;2023-05-23T17:46:17;6.10;;;2.50;;
68144;SDS011;55400;51.824;-0.196;2023-05-23T17:50:17;8.10;;;3.00;;
68144;SDS011;55400;51.824;-0.196;2023-05-23T17:54:17;7.60;;;2.50;;
68144;SDS011;55400;51.824;-0.196;2023-05-23T17:58:17;8.00;;;2.60;;
68144;SDS011;55400;51.824;-0.196;2023-05-23T18:02:17;7.50;;;2.60;;
68144;SDS011;55400;51.824;-0.196;2023-05-23T18:06:17;7.20;;;2.50;;
68144;SDS011;55400;51.824;-0.196;2023-05-23T18:18:17;5.70;;;2.50;;
68144;SDS011;55400;51.824;-0.196;2023-05-23T18:22:17;6.90;;;2.50;;
68144;SDS011;55400;51.824;-0.196;2023-05-23T18:26:17;8.20;;;2.50;;
68144;SDS011;55400;51.824;-0.196;2023-05-23T18:30:17;7.50;;;2.80;;
68144;SDS011;55400;51.824;-0.196;2023-05-23T18:34:17;5.50;;;2.50;;
68144;SDS011;55400;51.824;-0.196;2023-05-23T18:38:17;9.40;;;2.80;;
68144;SDS011;55400;51.824;-0.196;2023-05-23T18:42:17;8.00;;;2.50;;
68144;SDS011;55400;51.824;-0.196;2023-05-23T18:46:17;7.90;;;3.00;;
68144;SDS011;55400;51.824;-0.196;2023-05-23T18:50:17;7.80;;;3.10;;
68144;SDS011;55400;51.824;-0.196;2023-05-23T18:54:17;9.60;;;3.00;;
68144;SDS011;55400;51.824;-0.196;2023-05-23T18:58:17;7.30;;;2.70;;
68144;SDS011;55400;51.824;-0.196;2023-05-23T19:02:17;9.60;;;2.90;;
68144;SDS011;55400;51.824;-0.196;2023-05-23T19:06:17;6.20;;;2.80;;
68144;SDS011;55400;51.824;-0.196;2023-05-23T19:10:17;7.70;;;3.10;;
68144;SDS011;55400;51.824;-0.196;2023-05-23T19:14:17;10.30;;;2.90;;
68144;SDS011;55400;51.824;-0.196;2023-05-23T19:18:17;8.90;;;2.80;;
68144;SDS011;55400;51.824;-0.196;2023-05-23T19:22:17;6.80;;;2.70;;
68144;SDS011;55400;51.824;-0.196;2023-05-23T19:26:17;7.40;;;2.50;;
68144;SDS011;55400;51.824;-0.196;2023-05-23T19:30:17;9.10;;;2.70;;
68144;SDS011;55400;51.824;-0.196;2023-05-23T19:34:17;9.20;;;2.70;;
68144;SDS011;55400;51.824;-0.196;2023-05-23T19:38:17;9.50;;;3.00;;
68144;SDS011;55400;51.824;-0.196;2023-05-23T19:42:17;9.50;;;3.00;;
68144;SDS011;55400;51.824;-0.196;2023-05-23T19:46:17;8.30;;;2.60;;
68144;SDS011;55400;51.824;-0.196;2023-05-23T19:50:17;7.40;;;2.50;;
68144;SDS011;55400;51.824;-0.196;2023-05-23T19:54:17;9.40;;;2.90;;
68144;SDS011;55400;51.824;-0.196;2023-05-23T19:58:17;8.20;;;2.90;;
68144;SDS011;55400;51.824;-0.196;2023-05-23T20:02:00;11.00;;;3.00;;
68144;SDS011;55400;51.824;-0.196;2023-05-23T20:02:17;11.00;;;3.00;;
68144;SDS011;55400;51.824;-0.196;2023-05-23T20:06:17;8.00;;;2.80;;
68144;SDS011;55400;51.824;-0.196;2023-05-23T20:10:17;9.70;;;2.90;;
68144;SDS011;55400;51.824;-0.196;2023-05-23T20:14:17;6.60;;;2.60;;
68144;SDS011;55400;51.824;-0.196;2023-05-23T20:18:17;6.90;;;3.00;;
68144;SDS011;55400;51.824;-0.196;2023-05-23T20:22:17;6.10;;;2.60;;
68144;SDS011;55400;51.824;-0.196;2023-05-23T20:26:17;10.60;;;3.30;;
68144;SDS011;55400;51.824;-0.196;2023-05-23T20:30:17;7.90;;;2.80;;
68144;SDS011;55400;51.824;-0.196;2023-05-23T20:34:56;7.70;;;2.50;;
68144;SDS011;55400;51.824;-0.196;2023-05-23T20:38:17;7.70;;;2.50;;
68144;SDS011;55400;51.824;-0.196;2023-05-23T20:42:17;8.00;;;2.90;;
68144;SDS011;55400;51.824;-0.196;2023-05-23T20:46:17;9.80;;;2.90;;
68144;SDS011;55400;51.824;-0.196;2023-05-23T20:50:17;8.00;;;3.20;;
68144;SDS011;55400;51.824;-0.196;2023-05-23T20:54:17;7.20;;;3.00;;
68144;SDS011;55400;51.824;-0.196;2023-05-23T20:58:18;8.80;;;3.40;;
68144;SDS011;55400;51.824;-0.196;2023-05-23T21:02:17;9.50;;;3.40;;
68144;SDS011;55400;51.824;-0.196;2023-05-23T21:06:18;8.60;;;3.50;;
68144;SDS011;55400;51.824;-0.196;2023-05-23T21:10:17;9.40;;;3.60;;
68144;SDS011;55400;51.824;-0.196;2023-05-23T21:14:17;9.70;;;3.30;;
68144;SDS011;55400;51.824;-0.196;2023-05-23T21:18:17;10.20;;;3.80;;
68144;SDS011;55400;51.824;-0.196;2023-05-23T21:22:18;11.90;;;3.50;;
68144;SDS011;55400;51.824;-0.196;2023-05-23T21:26:17;11.00;;;3.50;;
68144;SDS011;55400;51.824;-0.196;2023-05-23T21:30:17;10.90;;;3.50;;
68144;SDS011;55400;51.824;-0.196;2023-05-23T21:34:17;12.10;;;3.70;;
68144;SDS011;55400;51.824;-0.196;2023-05-23T21:38:17;15.40;;;3.90;;
68144;SDS011;55400;51.824;-0.196;2023-05-23T21:42:18;14.00;;;3.80;;
68144;SDS011;55400;51.824;-0.196;2023-05-23T21:46:17;14.40;;;4.00;;
68144;SDS011;55400;51.824;-0.196;2023-05-23T21:50:17;9.60;;;3.60;;
68144;SDS011;55400;51.824;-0.196;2023-05-23T21:54:17;10.00;;;3.50;;
68144;SDS011;55400;51.824;-0.196;2023-05-23T21:58:17;12.20;;;3.60;;
68144;SDS011;55400;51.824;-0.196;2023-05-23T22:02:17;12.70;;;3.60;;
68144;SDS011;55400;51.824;-0.196;2023-05-23T22:06:17;14.90;;;4.10;;
68144;SDS011;55400;51.824;-0.196;2023-05-23T22:10:17;8.60;;;3.30;;
68144;SDS011;55400;51.824;-0.196;2023-05-23T22:14:17;12.70;;;3.80;;
68144;SDS011;55400;51.824;-0.196;2023-05-23T22:18:18;16.40;;;4.40;;
68144;SDS011;55400;51.824;-0.196;2023-05-23T22:22:18;15.10;;;3.90;;
68144;SDS011;55400;51.824;-0.196;2023-05-23T22:26:18;11.20;;;3.50;;
68144;SDS011;55400;51.824;-0.196;2023-05-23T22:30:17;11.00;;;3.60;;
68144;SDS011;55400;51.824;-0.196;2023-05-23T22:34:18;13.40;;;4.00;;
68144;SDS011;55400;51.824;-0.196;2023-05-23T22:38:17;10.50;;;3.90;;
68144;SDS011;55400;51.824;-0.196;2023-05-23T22:42:18;10.60;;;3.60;;
68144;SDS011;55400;51.824;-0.196;2023-05-23T22:46:17;10.40;;;3.30;;
68144;SDS011;55400;51.824;-0.196;2023-05-23T22:50:17;9.00;;;3.30;;
68144;SDS011;55400;51.824;-0.196;2023-05-23T22:54:17;8.80;;;3.80;;
68144;SDS011;55400;51.824;-0.196;2023-05-23T22:58:18;7.30;;;3.10;;
68144;SDS011;55400;51.824;-0.196;2023-05-23T23:02:17;11.10;;;3.50;;
68144;SDS011;55400;51.824;-0.196;2023-05-23T23:06:17;11.20;;;3.60;;
68144;SDS011;55400;51.824;-0.196;2023-05-23T23:10:18;10.00;;;3.90;;
68144;SDS011;55400;51.824;-0.196;2023-05-23T23:18:18;13.70;;;4.00;;
68144;SDS011;55400;51.824;-0.196;2023-05-23T23:22:18;10.10;;;4.20;;
68144;SDS011;55400;51.824;-0.196;2023-05-23T23:26:18;12.30;;;4.00;;
68144;SDS011;55400;51.824;-0.196;2023-05-23T23:34:18;12.30;;;3.80;;
68144;SDS011;55400;51.824;-0.196;2023-05-23T23:38:18;11.40;;;4.10;;
68144;SDS011;55400;51.824;-0.196;2023-05-23T23:46:18;12.80;;;4.20;;
68144;SDS011;55400;51.824;-0.196;2023-05-23T23:50:18;11.10;;;3.80;;
68144;SDS011;55400;51.824;-0.196;2023-05-23T23:54:18;10.50;;;3.90;;
68144;SDS011;55400;51.824;-0.196;2023-05-23T23:58:18;15.90;;;4.20;;
